createdAt,value
2023-03-24T00:01:27.673Z,11.17
2023-03-24T00:03:55.828Z,11.16
2023-03-24T00:06:24.082Z,11.26
2023-03-24T00:08:53.508Z,11.38
2023-03-24T00:11:21.645Z,11.39
2023-03-24T00:13:50.558Z,11.43
2023-03-24T00:16:20.042Z,11.44
2023-03-24T00:18:54.430Z,11.40
2023-03-24T00:21:27.671Z,11.46
2023-03-24T00:23:59.882Z,11.46
2023-03-24T00:26:28.747Z,11.48
2023-03-24T00:28:57.552Z,11.50
2023-03-24T00:31:26.270Z,11.50
2023-03-24T00:33:54.990Z,11.47
2023-03-24T00:36:26.427Z,11.49
2023-03-24T00:38:55.966Z,11.44
2023-03-24T00:41:27.208Z,11.36
2023-03-24T00:43:58.606Z,11.33
2023-03-24T00:46:30.233Z,11.28
2023-03-24T00:49:05.811Z,11.22
2023-03-24T00:51:37.139Z,11.21
2023-03-24T00:54:05.331Z,11.12
2023-03-24T00:56:36.356Z,11.08
2023-03-24T00:59:05.116Z,11.01
2023-03-24T01:01:35.526Z,10.87
2023-03-24T01:04:06.451Z,10.78
2023-03-24T01:06:37.197Z,10.68
2023-03-24T01:09:06.752Z,10.55
2023-03-24T01:11:38.994Z,10.56
2023-03-24T01:14:06.864Z,10.50
2023-03-24T01:16:34.845Z,10.42
2023-03-24T01:19:02.578Z,10.38
2023-03-24T01:21:32.065Z,10.32
2023-03-24T01:23:59.592Z,10.22
2023-03-24T01:26:28.315Z,10.11
2023-03-24T01:28:56.344Z,9.93
2023-03-24T01:31:24.722Z,9.83
2023-03-24T01:33:52.363Z,9.64
2023-03-24T01:36:20.349Z,9.50
2023-03-24T01:38:48.043Z,9.41
2023-03-24T01:41:16.340Z,9.27
2023-03-24T01:43:44.894Z,9.13
2023-03-24T01:46:14.977Z,9.05
2023-03-24T01:48:56.075Z,8.95
2023-03-24T01:51:27.788Z,8.77
2023-03-24T01:54:01.736Z,8.73
2023-03-24T01:56:36.481Z,8.67
2023-03-24T01:59:15.893Z,8.59
2023-03-24T02:02:03.610Z,8.41
2023-03-24T02:04:45.674Z,8.18
2023-03-24T02:07:26.574Z,8.13
2023-03-24T02:09:54.231Z,8.13
2023-03-24T02:12:22.517Z,8.16
2023-03-24T02:14:50.998Z,8.03
2023-03-24T02:17:55.063Z,7.83
2023-03-24T02:20:31.262Z,7.72
2023-03-24T02:23:30.822Z,7.57
2023-03-24T02:26:01.151Z,7.47
2023-03-24T02:28:37.159Z,7.41
2023-03-24T02:31:24.520Z,7.35
2023-03-24T02:34:11.643Z,7.34
2023-03-24T02:36:42.551Z,7.49
2023-03-24T02:39:29.118Z,7.64
2023-03-24T02:42:17.762Z,7.67
2023-03-24T02:44:49.133Z,7.68
2023-03-24T02:47:55.493Z,7.70
2023-03-24T02:50:51.435Z,7.72
2023-03-24T02:53:24.734Z,7.72
2023-03-24T02:56:13.726Z,7.68
2023-03-24T02:58:46.296Z,7.62
2023-03-24T03:01:36.309Z,7.61
2023-03-24T03:04:29.221Z,7.51
2023-03-24T03:06:59.383Z,7.48
2023-03-24T03:09:28.449Z,7.39
2023-03-24T03:11:58.416Z,7.27
2023-03-24T03:14:50.214Z,7.17
2023-03-24T03:17:24.041Z,7.12
2023-03-24T03:19:56.610Z,7.04
2023-03-24T03:22:29.333Z,6.95
2023-03-24T03:24:57.954Z,6.86
2023-03-24T03:27:31.612Z,6.85
2023-03-24T03:30:06.115Z,6.74
2023-03-24T03:32:39.693Z,6.65
2023-03-24T03:35:15.025Z,6.55
2023-03-24T03:38:16.342Z,6.53
2023-03-24T03:40:49.907Z,6.45
2023-03-24T03:43:21.161Z,6.37
2023-03-24T03:45:49.153Z,6.32
2023-03-24T03:48:20.799Z,6.24
2023-03-24T03:50:50.643Z,6.10
2023-03-24T03:53:24.327Z,6.05
2023-03-24T03:55:52.714Z,6.07
2023-03-24T03:58:21.352Z,6.05
2023-03-24T04:00:56.149Z,6.08
2023-03-24T04:04:21.918Z,6.18
2023-03-24T04:07:37.504Z,6.20
2023-03-24T04:11:06.684Z,6.19
2023-03-24T04:13:59.876Z,6.14
2023-03-24T04:17:12.843Z,6.16
2023-03-24T04:20:02.125Z,6.17
2023-03-24T04:23:09.885Z,6.15
2023-03-24T04:25:50.369Z,6.20
2023-03-24T04:28:20.570Z,6.20
2023-03-24T04:31:03.781Z,6.26
2023-03-24T04:33:39.250Z,6.28
2023-03-24T04:36:17.419Z,6.35
2023-03-24T04:39:05.800Z,6.47
2023-03-24T04:41:41.559Z,6.65
2023-03-24T04:44:17.973Z,6.81
2023-03-24T04:47:03.581Z,6.92
2023-03-24T04:49:32.813Z,7.04
2023-03-24T04:52:00.448Z,7.11
2023-03-24T04:54:33.627Z,7.20
2023-03-24T04:57:06.293Z,7.30
2023-03-24T04:59:40.888Z,7.37
2023-03-24T05:02:09.447Z,7.43
2023-03-24T05:04:50.080Z,7.52
2023-03-24T05:07:25.769Z,7.61
2023-03-24T05:09:58.312Z,7.72
2023-03-24T05:12:26.347Z,7.82
2023-03-24T05:15:14.184Z,7.97
2023-03-24T05:17:43.045Z,8.11
2023-03-24T05:20:13.322Z,8.24
2023-03-24T05:22:44.050Z,8.37
2023-03-24T05:25:12.793Z,8.52
2023-03-24T05:27:40.531Z,8.67
2023-03-24T05:30:27.358Z,8.82
2023-03-24T05:33:03.642Z,8.96
2023-03-24T05:35:32.308Z,9.06
2023-03-24T05:38:00.964Z,9.28
2023-03-24T05:40:29.576Z,9.45
2023-03-24T05:43:17.136Z,9.64
2023-03-24T05:45:57.181Z,9.80
2023-03-24T05:48:31.127Z,9.97
2023-03-24T05:51:18.516Z,10.09
2023-03-24T05:53:52.876Z,10.15
2023-03-24T05:56:31.506Z,10.24
2023-03-24T05:59:11.935Z,10.36
2023-03-24T06:01:59.240Z,10.33
2023-03-24T06:04:36.691Z,10.43
2023-03-24T06:07:12.165Z,10.57
2023-03-24T06:09:47.266Z,10.68
2023-03-24T06:12:17.426Z,10.71
2023-03-24T06:14:53.307Z,10.74
2023-03-24T06:17:21.714Z,10.83
2023-03-24T06:19:54.112Z,10.91
2023-03-24T06:22:40.551Z,10.91
2023-03-24T06:25:13.397Z,10.99
2023-03-24T06:27:48.810Z,11.09
2023-03-24T06:30:21.308Z,11.14
2023-03-24T06:32:50.597Z,11.26
2023-03-24T06:35:19.934Z,11.36
2023-03-24T06:37:54.009Z,11.43
2023-03-24T06:40:22.804Z,11.50
2023-03-24T06:42:58.439Z,11.54
2023-03-24T06:45:27.904Z,11.57
2023-03-24T06:47:57.581Z,11.59
2023-03-24T06:50:27.574Z,11.65
2023-03-24T06:52:56.793Z,11.63
2023-03-24T06:55:25.888Z,11.69
2023-03-24T06:57:56.289Z,11.74
2023-03-24T07:00:47.725Z,11.74
2023-03-24T07:03:36.931Z,11.78
2023-03-24T07:06:23.796Z,11.72
2023-03-24T07:08:55.609Z,11.73
2023-03-24T07:11:25.573Z,11.76
2023-03-24T07:13:59.951Z,11.81
2023-03-24T07:16:29.476Z,11.82
2023-03-24T07:19:05.848Z,11.84
2023-03-24T07:21:37.491Z,11.93
2023-03-24T07:24:07.085Z,11.97
2023-03-24T07:26:44.746Z,11.99
2023-03-24T07:29:20.175Z,12.09
2023-03-24T07:32:02.640Z,12.07
2023-03-24T07:34:32.455Z,12.12
2023-03-24T07:37:01.847Z,12.13
2023-03-24T07:39:31.641Z,12.20
2023-03-24T07:41:59.787Z,12.20
2023-03-24T07:44:45.343Z,12.30
2023-03-24T07:47:13.421Z,12.35
2023-03-24T07:49:41.948Z,12.36
2023-03-24T07:52:12.367Z,12.43
2023-03-24T07:54:46.092Z,12.48
2023-03-24T07:57:32.304Z,12.55
2023-03-24T08:00:00.877Z,12.50
2023-03-24T08:02:43.575Z,12.54
2023-03-24T08:05:39.638Z,12.52
2023-03-24T08:08:25.998Z,12.62
2023-03-24T08:10:54.444Z,12.50
2023-03-24T08:13:23.090Z,12.62
2023-03-24T08:15:53.642Z,12.65
2023-03-24T08:18:22.644Z,12.65
2023-03-24T08:20:51.336Z,12.56
2023-03-24T08:23:19.058Z,12.63
2023-03-24T08:25:47.859Z,12.63
2023-03-24T08:28:17.141Z,12.63
2023-03-24T08:30:45.915Z,12.65
2023-03-24T08:33:15.794Z,12.63
2023-03-24T08:35:46.514Z,12.68
2023-03-24T08:38:18.593Z,12.68
2023-03-24T08:40:49.255Z,12.75
2023-03-24T08:43:18.076Z,12.84
2023-03-24T08:45:46.954Z,12.83
2023-03-24T08:48:14.886Z,12.73
2023-03-24T08:50:43.945Z,12.84
2023-03-24T08:53:12.780Z,12.82
2023-03-24T08:55:43.417Z,12.88
2023-03-24T08:58:15.422Z,12.82
2023-03-24T09:00:44.662Z,12.91
2023-03-24T09:03:18.912Z,12.90
2023-03-24T09:05:47.976Z,12.91
2023-03-24T09:08:17.513Z,13.15
2023-03-24T09:10:49.912Z,13.20
2023-03-24T09:13:18.866Z,13.31
2023-03-24T09:15:59.105Z,13.49
2023-03-24T09:18:27.356Z,13.57
2023-03-24T09:20:56.359Z,13.76
2023-03-24T09:23:24.400Z,13.94
2023-03-24T09:25:53.921Z,14.11
2023-03-24T09:28:22.517Z,14.20
2023-03-24T09:30:51.338Z,14.24
2023-03-24T09:33:19.707Z,14.27
2023-03-24T09:35:56.511Z,14.38
2023-03-24T09:38:27.082Z,14.55
2023-03-24T09:41:04.583Z,14.59
2023-03-24T09:43:51.329Z,14.58
2023-03-24T09:46:35.242Z,14.67
2023-03-24T09:49:05.078Z,14.67
2023-03-24T09:51:37.100Z,14.77
2023-03-24T09:54:19.915Z,14.90
2023-03-24T09:56:51.533Z,14.86
2023-03-24T09:59:33.816Z,14.95
2023-03-24T10:02:02.390Z,14.97
2023-03-24T10:04:32.398Z,14.92
2023-03-24T10:07:12.944Z,15.00
2023-03-24T10:09:40.703Z,15.04
2023-03-24T10:12:21.625Z,15.09
2023-03-24T10:15:03.993Z,15.07
2023-03-24T10:18:05.219Z,15.06
2023-03-24T10:20:44.851Z,15.08
2023-03-24T10:23:28.070Z,15.07
2023-03-24T10:26:32.373Z,15.07
2023-03-24T10:29:06.755Z,15.16
2023-03-24T10:31:36.590Z,15.33
2023-03-24T10:34:09.170Z,15.38
2023-03-24T10:36:39.617Z,15.45
2023-03-24T10:39:22.683Z,15.48
2023-03-24T10:41:55.125Z,15.52
2023-03-24T10:44:23.419Z,15.53
2023-03-24T10:46:54.827Z,15.52
2023-03-24T10:49:24.299Z,15.55
2023-03-24T10:51:57.149Z,15.61
2023-03-24T10:54:26.915Z,15.64
2023-03-24T10:57:06.450Z,15.65
2023-03-24T10:59:48.909Z,15.71
2023-03-24T11:02:19.410Z,15.79
2023-03-24T11:04:57.435Z,15.84
2023-03-24T11:07:41.232Z,15.83
2023-03-24T11:10:17.397Z,15.93
2023-03-24T11:12:58.196Z,16.00
2023-03-24T11:15:30.961Z,15.99
2023-03-24T11:18:04.179Z,16.00
2023-03-24T11:20:39.426Z,15.98
2023-03-24T11:23:12.630Z,15.95
2023-03-24T11:25:42.391Z,15.99
2023-03-24T11:28:16.310Z,15.92
2023-03-24T11:30:55.514Z,15.96
2023-03-24T11:33:35.505Z,15.87
2023-03-24T11:36:30.881Z,15.88
2023-03-24T11:39:11.954Z,15.85
2023-03-24T11:41:44.345Z,16.02
2023-03-24T11:44:17.864Z,15.98
2023-03-24T11:46:51.428Z,16.02
2023-03-24T11:49:22.990Z,16.10
2023-03-24T11:51:54.124Z,16.20
2023-03-24T11:54:26.198Z,16.25
2023-03-24T11:56:59.159Z,16.24
2023-03-24T11:59:31.771Z,16.35
2023-03-24T12:02:20.582Z,16.38
2023-03-24T12:05:06.990Z,16.50
2023-03-24T12:07:58.728Z,16.51
2023-03-24T12:10:50.074Z,16.50
2023-03-24T12:13:45.193Z,16.47
2023-03-24T12:16:34.715Z,16.52
2023-03-24T12:19:12.158Z,16.68
2023-03-24T12:22:19.031Z,16.86
2023-03-24T12:25:06.625Z,17.02
2023-03-24T12:27:57.209Z,17.23
2023-03-24T12:30:46.529Z,17.37
2023-03-24T12:33:29.497Z,17.50
2023-03-24T12:36:03.489Z,17.67
2023-03-24T12:38:46.572Z,17.66
2023-03-24T12:41:38.055Z,17.74
2023-03-24T12:44:28.557Z,17.80
2023-03-24T12:47:18.649Z,17.76
2023-03-24T12:50:08.143Z,17.91
2023-03-24T12:52:49.075Z,17.90
2023-03-24T12:55:51.731Z,18.02
2023-03-24T12:58:27.032Z,18.05
2023-03-24T13:01:02.713Z,18.08
2023-03-24T13:03:55.105Z,18.09
2023-03-24T13:06:34.445Z,18.02
2023-03-24T13:09:30.379Z,18.11
2023-03-24T13:12:33.838Z,18.19
2023-03-24T13:15:32.544Z,18.19
2023-03-24T13:18:09.139Z,18.24
2023-03-24T13:20:40.624Z,18.19
2023-03-24T13:23:24.955Z,18.18
2023-03-24T13:26:06.789Z,18.09
2023-03-24T13:28:44.540Z,17.97
2023-03-24T13:31:13.693Z,18.02
2023-03-24T13:33:44.775Z,17.95
2023-03-24T13:36:23.893Z,17.97
2023-03-24T13:38:55.266Z,17.98
2023-03-24T13:41:27.475Z,18.02
2023-03-24T13:44:00.707Z,17.99
2023-03-24T13:46:29.438Z,18.05
2023-03-24T13:48:59.070Z,18.03
2023-03-24T13:51:36.367Z,18.05
2023-03-24T13:54:29.296Z,17.98
2023-03-24T13:57:07.383Z,18.01
2023-03-24T13:59:38.419Z,18.09
2023-03-24T14:02:29.547Z,18.06
2023-03-24T14:05:34.615Z,18.13
2023-03-24T14:08:05.213Z,18.14
2023-03-24T14:10:48.581Z,18.18
2023-03-24T14:13:16.975Z,18.26
2023-03-24T14:15:46.907Z,18.36
2023-03-24T14:18:23.298Z,18.38
2023-03-24T14:20:57.811Z,18.27
2023-03-24T14:23:49.567Z,18.19
2023-03-24T14:26:34.347Z,18.26
2023-03-24T14:29:03.141Z,18.27
2023-03-24T14:31:33.138Z,18.28
2023-03-24T14:34:20.670Z,18.29
2023-03-24T14:37:01.700Z,18.34
2023-03-24T14:39:42.641Z,18.32
2023-03-24T14:42:49.006Z,18.29
2023-03-24T14:45:40.301Z,18.27
2023-03-24T14:48:39.624Z,18.22
2023-03-24T14:51:28.597Z,18.23
2023-03-24T14:53:59.333Z,18.16
2023-03-24T14:56:34.384Z,17.94
2023-03-24T14:59:05.807Z,18.01
2023-03-24T15:01:38.257Z,17.99
2023-03-24T15:04:08.201Z,18.01
2023-03-24T15:06:47.337Z,18.03
2023-03-24T15:09:17.543Z,18.04
2023-03-24T15:11:48.518Z,17.97
2023-03-24T15:14:23.227Z,17.91
2023-03-24T15:16:58.098Z,17.88
2023-03-24T15:19:28.338Z,17.82
2023-03-24T15:22:06.042Z,17.75
2023-03-24T15:24:36.998Z,17.73
2023-03-24T15:27:08.137Z,17.65
2023-03-24T15:29:38.923Z,17.58
2023-03-24T15:32:08.282Z,17.56
2023-03-24T15:34:40.312Z,17.51
2023-03-24T15:37:23.335Z,17.47
2023-03-24T15:39:59.207Z,17.48
2023-03-24T15:42:41.256Z,17.44
2023-03-24T15:45:38.530Z,17.37
2023-03-24T15:48:14.539Z,17.35
2023-03-24T15:50:56.389Z,17.29
2023-03-24T15:53:45.701Z,17.26
2023-03-24T15:56:13.464Z,17.21
2023-03-24T15:59:12.914Z,17.19
2023-03-24T16:01:44.073Z,17.12
2023-03-24T16:04:18.644Z,17.08
2023-03-24T16:06:52.899Z,16.98
2023-03-24T16:09:23.037Z,16.98
2023-03-24T16:11:50.896Z,16.95
2023-03-24T16:14:30.191Z,16.90
2023-03-24T16:17:01.854Z,16.88
2023-03-24T16:19:30.405Z,16.91
2023-03-24T16:21:58.487Z,16.87
2023-03-24T16:24:26.712Z,16.77
2023-03-24T16:26:54.548Z,16.75
2023-03-24T16:29:24.769Z,16.63
2023-03-24T16:31:54.235Z,16.21
2023-03-24T16:34:23.855Z,15.14
2023-03-24T16:36:53.627Z,14.63
2023-03-24T16:39:27.376Z,14.10
2023-03-24T16:41:56.841Z,14.08
2023-03-24T16:44:25.711Z,13.95
2023-03-24T16:46:55.054Z,13.69
2023-03-24T16:49:24.778Z,13.62
2023-03-24T16:51:54.311Z,13.55
2023-03-24T16:54:22.498Z,13.55
2023-03-24T16:56:50.597Z,13.55
2023-03-24T16:59:20.300Z,13.54
2023-03-24T17:01:48.955Z,13.47
2023-03-24T17:04:19.714Z,13.49
2023-03-24T17:06:53.122Z,13.38
2023-03-24T17:09:22.119Z,13.36
2023-03-24T17:11:57.659Z,13.37
2023-03-24T17:14:26.130Z,13.40
2023-03-24T17:16:54.625Z,13.40
2023-03-24T17:19:25.057Z,13.29
2023-03-24T17:22:01.966Z,13.27
2023-03-24T17:24:36.289Z,13.30
2023-03-24T17:27:05.214Z,13.25
2023-03-24T17:29:33.705Z,13.22
2023-03-24T17:32:01.315Z,13.21
2023-03-24T17:34:29.451Z,13.24
2023-03-24T17:36:57.088Z,13.25
2023-03-24T17:39:25.689Z,13.22
2023-03-24T17:41:57.965Z,13.27
2023-03-24T17:44:26.249Z,13.25
2023-03-24T17:46:54.387Z,13.24
2023-03-24T17:49:22.773Z,13.18
2023-03-24T17:51:50.743Z,13.20
2023-03-24T17:54:20.998Z,13.19
2023-03-24T17:56:49.071Z,13.14
2023-03-24T17:59:17.631Z,13.17
2023-03-24T18:01:47.989Z,13.09
2023-03-24T18:04:17.829Z,13.01
2023-03-24T18:06:46.973Z,12.95
2023-03-24T18:09:15.368Z,12.89
2023-03-24T18:11:42.840Z,12.91
2023-03-24T18:14:11.235Z,12.84
2023-03-24T18:16:41.942Z,12.80
2023-03-24T18:19:11.046Z,12.79
2023-03-24T18:21:40.116Z,12.70
2023-03-24T18:24:09.046Z,12.82
2023-03-24T18:26:37.398Z,12.88
2023-03-24T18:29:06.194Z,12.88
2023-03-24T18:31:34.778Z,12.86
2023-03-24T18:34:04.278Z,12.86
2023-03-24T18:36:32.704Z,12.88
2023-03-24T18:39:07.331Z,12.89
2023-03-24T18:41:37.332Z,12.90
2023-03-24T18:44:17.777Z,12.88
2023-03-24T18:46:46.002Z,12.88
2023-03-24T18:49:17.324Z,12.89
2023-03-24T18:51:47.195Z,12.86
2023-03-24T18:54:15.886Z,12.83
2023-03-24T18:56:43.723Z,12.86
2023-03-24T18:59:13.286Z,12.80
2023-03-24T19:01:41.348Z,12.82
2023-03-24T19:04:09.949Z,12.82
2023-03-24T19:06:42.476Z,12.83
2023-03-24T19:09:11.253Z,12.81
2023-03-24T19:11:41.128Z,12.80
2023-03-24T19:14:12.296Z,12.83
2023-03-24T19:16:40.602Z,12.78
2023-03-24T19:19:10.427Z,12.82
2023-03-24T19:21:38.681Z,12.78
2023-03-24T19:24:07.487Z,12.78
2023-03-24T19:26:36.280Z,12.77
2023-03-24T19:29:04.732Z,12.74
2023-03-24T19:31:33.875Z,12.78
2023-03-24T19:34:02.502Z,12.74
2023-03-24T19:36:30.561Z,12.71
2023-03-24T19:38:58.751Z,12.73
2023-03-24T19:41:26.615Z,12.73
2023-03-24T19:43:55.031Z,12.72
2023-03-24T19:46:23.010Z,12.72
2023-03-24T19:48:51.440Z,12.67
2023-03-24T19:51:21.288Z,12.68
2023-03-24T19:53:49.596Z,12.57
2023-03-24T19:56:19.423Z,12.66
2023-03-24T19:58:47.961Z,12.64
2023-03-24T20:01:15.834Z,12.61
2023-03-24T20:03:44.579Z,12.65
2023-03-24T20:06:12.807Z,12.58
2023-03-24T20:08:41.474Z,12.63
2023-03-24T20:11:11.314Z,12.59
2023-03-24T20:13:40.086Z,12.53
2023-03-24T20:16:07.880Z,12.54
2023-03-24T20:18:36.441Z,12.45
2023-03-24T20:21:07.005Z,12.40
2023-03-24T20:23:35.773Z,12.44
2023-03-24T20:26:04.799Z,12.38
2023-03-24T20:28:33.439Z,12.39
2023-03-24T20:31:03.771Z,12.32
2023-03-24T20:33:33.397Z,12.29
2023-03-24T20:36:02.050Z,12.28
2023-03-24T20:38:31.554Z,12.25
2023-03-24T20:41:02.666Z,12.24
2023-03-24T20:43:35.776Z,12.24
2023-03-24T20:46:08.584Z,12.16
2023-03-24T20:48:37.215Z,12.17
2023-03-24T20:51:06.236Z,12.15
2023-03-24T20:53:36.983Z,12.10
2023-03-24T20:56:08.006Z,12.11
2023-03-24T20:58:41.569Z,12.06
2023-03-24T21:01:13.604Z,12.05
2023-03-24T21:03:42.233Z,12.02
2023-03-24T21:06:11.493Z,11.95
2023-03-24T21:08:43.961Z,11.93
2023-03-24T21:11:13.866Z,11.92
2023-03-24T21:13:42.354Z,11.87
2023-03-24T21:16:11.480Z,11.80
2023-03-24T21:18:42.720Z,11.80
2023-03-24T21:21:16.198Z,11.77
2023-03-24T21:23:44.743Z,11.74
2023-03-24T21:26:15.881Z,11.70
2023-03-24T21:28:46.109Z,11.61
2023-03-24T21:31:18.686Z,11.66
2023-03-24T21:33:47.277Z,11.72
2023-03-24T21:36:16.059Z,11.64
2023-03-24T21:38:44.805Z,11.66
2023-03-24T21:41:13.430Z,11.59
2023-03-24T21:43:42.321Z,11.59
2023-03-24T21:46:15.378Z,11.59
2023-03-24T21:48:50.373Z,11.49
2023-03-24T21:51:20.845Z,11.43
2023-03-24T21:53:49.468Z,11.40
2023-03-24T21:56:18.103Z,11.41
2023-03-24T21:58:46.809Z,11.42
2023-03-24T22:01:15.019Z,11.34
2023-03-24T22:03:43.292Z,11.29
2023-03-24T22:06:11.452Z,11.19
2023-03-24T22:08:44.047Z,11.14
2023-03-24T22:11:15.478Z,11.06
2023-03-24T22:13:43.844Z,11.05
2023-03-24T22:16:11.859Z,11.01
2023-03-24T22:18:40.648Z,10.92
2023-03-24T22:21:13.312Z,10.90
2023-03-24T22:23:43.112Z,10.89
2023-03-24T22:26:13.829Z,10.79
2023-03-24T22:28:42.595Z,10.71
2023-03-24T22:31:12.949Z,10.63
2023-03-24T22:33:42.499Z,10.54
2023-03-24T22:36:11.119Z,10.51
2023-03-24T22:38:40.028Z,10.31
2023-03-24T22:41:11.306Z,10.29
2023-03-24T22:43:40.102Z,10.24
2023-03-24T22:46:11.285Z,10.23
2023-03-24T22:48:40.359Z,10.14
2023-03-24T22:51:09.067Z,10.19
2023-03-24T22:53:36.995Z,10.20
2023-03-24T22:56:06.458Z,10.19
2023-03-24T22:58:36.086Z,10.18
2023-03-24T23:01:05.601Z,10.18
2023-03-24T23:03:34.399Z,10.17
2023-03-24T23:06:02.911Z,10.12
2023-03-24T23:08:32.715Z,10.12
2023-03-24T23:11:01.260Z,10.07
2023-03-24T23:13:30.967Z,10.01
2023-03-24T23:15:58.819Z,9.90
2023-03-24T23:18:27.216Z,9.94
2023-03-24T23:21:11.879Z,9.93
2023-03-24T23:23:41.508Z,9.93
2023-03-24T23:26:25.184Z,9.88
2023-03-24T23:28:55.230Z,9.82
2023-03-24T23:31:26.009Z,9.80
2023-03-24T23:33:58.577Z,9.70
2023-03-24T23:36:28.619Z,9.69
2023-03-24T23:38:57.579Z,9.66
2023-03-24T23:41:25.531Z,9.62
2023-03-24T23:43:55.833Z,9.58
2023-03-24T23:46:25.061Z,9.58
2023-03-24T23:48:53.912Z,9.55
2023-03-24T23:51:22.371Z,9.51
2023-03-24T23:53:51.221Z,9.48
2023-03-24T23:56:21.865Z,9.43
2023-03-24T23:58:50.247Z,9.40
